Página principal
METAR-TAF:

METAR-TAF

Aeroportos :

Base aérea

Morón de la Frontera, Espanha

latitude: 37-09N, longitude: 005-37W, altura: 87 m

Observação actual do tempo

O boletim foi feito há 54 minutos, às 05:00 UTC
Vento 1 kt com direcção variável
Temperatura 13°C
Humidade 94%
Pressão 1013 hPa
Visibilidade 10 km ou mais
Poucas nuvensa uma altura de 2500 ft
Nuvens fragmentadasa uma altura de 4000 ft

METAR: LEMO 260500Z VRB01KT 9999 FEW025 BKN040 13/12 Q1013 NOSIG

Hora: 07:54 (05:54 UTC)


TAF: em falta

Observações e previsões do tempo de mais de 4000 aeroportos (mensagens METAR e TAF).

As estações disponíveis são os pontos amarelos e vermelhos sobre o mapa.

Mova o rato sobre o mapa para ver o nome da estação.

Depois clique no ponto para visualizar as observações e previsões meteorológicas.

Para alterar o mapa : clique nos botões verdes com uma cruz preta para aumentar o zoom; no botão verde com uma pitada de zoom; ou nas setas verdes para mapas adjacentes.


METAR-TAF: